createdAt,value
2022-08-23T00:02:26.541Z,9.83
2022-08-23T00:05:08.236Z,9.73
2022-08-23T00:07:41.752Z,10.07
2022-08-23T00:10:10.957Z,10.03
2022-08-23T00:12:38.306Z,10.70
2022-08-23T00:15:06.496Z,9.60
2022-08-23T00:17:35.073Z,8.97
2022-08-23T00:20:12.275Z,9.87
2022-08-23T00:22:41.862Z,10.60
2022-08-23T00:25:11.077Z,10.20
2022-08-23T00:27:38.059Z,10.43
2022-08-23T00:30:08.789Z,9.80
2022-08-23T00:32:37.231Z,10.93
2022-08-23T00:35:06.623Z,10.13
2022-08-23T00:37:33.840Z,10.17
2022-08-23T00:40:01.037Z,10.97
2022-08-23T00:43:03.493Z,10.07
2022-08-23T00:46:06.521Z,8.87
2022-08-23T00:48:34.414Z,8.57
2022-08-23T00:51:11.018Z,9.10
2022-08-23T00:53:42.113Z,9.43
2022-08-23T00:56:12.407Z,8.73
2022-08-23T00:58:39.353Z,8.93
2022-08-23T01:01:06.651Z,9.10
2022-08-23T01:03:38.396Z,9.80
2022-08-23T01:06:18.218Z,9.67
2022-08-23T01:08:50.539Z,10.00
2022-08-23T01:11:25.830Z,9.33
2022-08-23T01:14:24.411Z,10.40
2022-08-23T01:16:57.456Z,9.57
2022-08-23T01:19:32.905Z,9.53
2022-08-23T01:22:10.904Z,11.00
2022-08-23T01:25:06.052Z,9.93
2022-08-23T01:27:25.650Z,10.17
2022-08-23T01:29:52.359Z,9.90
2022-08-23T01:32:19.833Z,9.27
2022-08-23T01:34:51.973Z,9.73
2022-08-23T01:37:19.654Z,9.90
2022-08-23T01:39:46.360Z,10.17
2022-08-23T01:42:13.120Z,9.97
2022-08-23T01:44:39.838Z,10.67
2022-08-23T01:47:07.789Z,9.37
2022-08-23T01:49:35.245Z,9.33
2022-08-23T01:52:02.084Z,10.30
2022-08-23T01:54:29.394Z,10.10
2022-08-23T01:56:56.635Z,10.27
2022-08-23T01:59:24.257Z,9.63
2022-08-23T02:01:51.420Z,10.20
2022-08-23T02:04:18.259Z,10.50
2022-08-23T02:06:45.302Z,10.37
2022-08-23T02:09:17.504Z,10.30
2022-08-23T02:11:44.951Z,10.77
2022-08-23T02:14:16.025Z,9.90
2022-08-23T02:17:03.966Z,10.20
2022-08-23T02:19:35.357Z,10.23
2022-08-23T02:22:03.556Z,9.80
2022-08-23T02:24:31.608Z,10.90
2022-08-23T02:27:02.259Z,11.17
2022-08-23T02:29:32.436Z,10.23
2022-08-23T02:32:00.378Z,10.43
2022-08-23T02:34:27.902Z,9.17
2022-08-23T02:36:54.978Z,9.97
2022-08-23T02:39:22.083Z,9.63
2022-08-23T02:41:49.891Z,9.17
2022-08-23T02:44:16.843Z,8.93
2022-08-23T02:46:43.630Z,10.03
2022-08-23T02:49:10.287Z,9.07
2022-08-23T02:51:37.469Z,9.30
2022-08-23T02:54:05.732Z,8.10
2022-08-23T02:56:33.802Z,8.17
2022-08-23T02:59:00.501Z,9.10
2022-08-23T03:01:30.068Z,9.53
2022-08-23T03:03:57.756Z,9.03
2022-08-23T03:06:26.453Z,8.50
2022-08-23T03:08:54.458Z,8.60
2022-08-23T03:11:22.552Z,8.30
2022-08-23T03:13:50.733Z,9.03
2022-08-23T03:16:18.306Z,8.63
2022-08-23T03:18:45.418Z,9.03
2022-08-23T03:21:12.203Z,9.43
2022-08-23T03:23:40.384Z,9.03
2022-08-23T03:26:09.119Z,9.70
2022-08-23T03:28:37.661Z,9.33
2022-08-23T03:31:05.510Z,8.63
2022-08-23T03:33:32.231Z,8.63
2022-08-23T03:36:01.373Z,8.00
2022-08-23T03:38:28.169Z,8.10
2022-08-23T03:40:54.991Z,8.73
2022-08-23T03:43:22.194Z,9.77
2022-08-23T03:45:48.869Z,10.07
2022-08-23T03:48:16.230Z,9.33
2022-08-23T03:50:44.216Z,9.63
2022-08-23T03:53:12.228Z,9.47
2022-08-23T03:55:42.686Z,10.37
2022-08-23T03:58:10.783Z,9.23
2022-08-23T04:00:39.118Z,10.23
2022-08-23T04:03:05.805Z,10.30
2022-08-23T04:05:32.472Z,9.87
2022-08-23T04:07:59.650Z,9.87
2022-08-23T04:10:26.578Z,9.93
2022-08-23T04:12:54.961Z,9.60
2022-08-23T04:15:22.892Z,10.50
2022-08-23T04:17:49.584Z,9.10
2022-08-23T04:20:16.592Z,9.43
2022-08-23T04:22:44.590Z,9.57
2022-08-23T04:25:33.995Z,10.20
2022-08-23T04:28:00.805Z,9.17
2022-08-23T04:30:28.000Z,10.37
2022-08-23T04:32:54.668Z,9.97
2022-08-23T04:35:22.707Z,9.90
2022-08-23T04:37:49.431Z,10.07
2022-08-23T04:40:35.004Z,10.10
2022-08-23T04:43:02.535Z,9.97
2022-08-23T04:45:29.719Z,10.30
2022-08-23T04:47:56.851Z,9.47
2022-08-23T04:50:23.931Z,10.57
2022-08-23T04:52:51.025Z,9.53
2022-08-23T04:55:17.770Z,10.53
2022-08-23T04:57:44.829Z,10.83
2022-08-23T05:00:14.163Z,11.00
2022-08-23T05:02:41.123Z,11.57
2022-08-23T05:05:10.981Z,11.67
2022-08-23T05:07:42.495Z,10.47
2022-08-23T05:10:15.260Z,9.43
2022-08-23T05:12:42.296Z,10.23
2022-08-23T05:15:09.821Z,10.03
2022-08-23T05:17:37.068Z,9.97
2022-08-23T05:20:07.057Z,10.63
2022-08-23T05:22:35.415Z,10.07
2022-08-23T05:25:02.137Z,10.90
2022-08-23T05:27:28.831Z,12.13
2022-08-23T05:29:55.710Z,11.53
2022-08-23T05:32:23.001Z,14.13
2022-08-23T05:34:50.012Z,12.90
2022-08-23T05:37:17.942Z,13.10
2022-08-23T05:39:44.646Z,13.47
2022-08-23T05:42:14.890Z,13.63
2022-08-23T05:44:42.161Z,13.47
2022-08-23T05:47:12.758Z,11.57
2022-08-23T05:49:42.553Z,12.33
2022-08-23T05:52:12.134Z,12.80
2022-08-23T05:54:38.765Z,16.10
2022-08-23T05:57:05.533Z,17.13
2022-08-23T05:59:32.202Z,15.57
2022-08-23T06:01:58.840Z,14.60
2022-08-23T06:04:25.489Z,16.70
2022-08-23T06:06:52.179Z,17.57
2022-08-23T06:09:19.445Z,15.37
2022-08-23T06:11:48.019Z,15.27
2022-08-23T06:14:15.119Z,16.77
2022-08-23T06:16:45.826Z,16.90
2022-08-23T06:19:14.262Z,16.00
2022-08-23T06:21:42.031Z,15.37
2022-08-23T06:24:09.349Z,14.67
2022-08-23T06:26:39.832Z,14.73
2022-08-23T06:29:14.661Z,13.93
2022-08-23T06:31:50.101Z,13.30
2022-08-23T06:34:26.422Z,12.83
2022-08-23T06:36:56.498Z,13.93
2022-08-23T06:39:25.316Z,14.17
2022-08-23T06:41:52.654Z,13.90
2022-08-23T06:44:20.182Z,14.13
2022-08-23T06:46:48.870Z,13.70
2022-08-23T06:49:16.538Z,13.27
2022-08-23T06:51:50.401Z,12.03
2022-08-23T06:54:22.033Z,12.23
2022-08-23T06:56:49.680Z,12.70
2022-08-23T06:59:17.492Z,12.10
2022-08-23T07:01:52.250Z,11.97
2022-08-23T07:04:22.911Z,11.17
2022-08-23T07:06:49.547Z,12.50
2022-08-23T07:09:16.699Z,12.33
2022-08-23T07:11:43.404Z,11.80
2022-08-23T07:14:13.151Z,11.07
2022-08-23T07:17:01.371Z,11.73
2022-08-23T07:19:31.585Z,12.60
2022-08-23T07:21:59.033Z,12.40
2022-08-23T07:24:32.120Z,12.63
2022-08-23T07:27:01.818Z,12.43
2022-08-23T07:29:30.125Z,11.70
2022-08-23T07:31:57.151Z,12.33
2022-08-23T07:34:25.054Z,11.87
2022-08-23T07:36:53.528Z,11.77
2022-08-23T07:39:22.312Z,11.07
2022-08-23T07:41:49.593Z,11.13
2022-08-23T07:44:18.201Z,10.80
2022-08-23T07:46:46.658Z,10.47
2022-08-23T07:49:14.428Z,10.83
2022-08-23T07:51:45.564Z,10.60
2022-08-23T07:54:13.047Z,10.53
2022-08-23T07:56:40.665Z,12.63
2022-08-23T07:59:08.813Z,11.57
2022-08-23T08:01:36.218Z,10.90
2022-08-23T08:04:05.256Z,12.80
2022-08-23T08:06:41.218Z,11.67
2022-08-23T08:09:09.446Z,12.37
2022-08-23T08:11:36.330Z,11.97
2022-08-23T08:14:08.928Z,11.77
2022-08-23T08:16:39.351Z,11.63
2022-08-23T08:19:08.916Z,11.27
2022-08-23T08:21:39.647Z,12.00
2022-08-23T08:24:11.412Z,12.50
2022-08-23T08:26:38.532Z,12.70
2022-08-23T08:29:06.230Z,11.20
2022-08-23T08:31:34.512Z,12.37
2022-08-23T08:34:01.260Z,11.43
2022-08-23T08:36:41.537Z,11.43
2022-08-23T08:39:11.695Z,12.07
2022-08-23T08:41:44.198Z,12.70
2022-08-23T08:44:22.212Z,13.20
2022-08-23T08:46:53.273Z,11.53
2022-08-23T08:49:44.518Z,11.70
2022-08-23T08:52:16.210Z,10.07
2022-08-23T08:54:48.139Z,10.70
2022-08-23T08:57:18.540Z,11.33
2022-08-23T08:59:59.714Z,10.47
2022-08-23T09:02:32.781Z,9.93
2022-08-23T09:05:09.602Z,11.57
2022-08-23T09:07:47.369Z,11.67
2022-08-23T09:10:32.329Z,10.10
2022-08-23T09:13:19.864Z,10.97
2022-08-23T09:15:52.902Z,10.53
2022-08-23T09:18:19.655Z,10.93
2022-08-23T09:20:51.177Z,10.00
2022-08-23T09:23:31.840Z,10.70
2022-08-23T09:26:03.702Z,10.90
2022-08-23T09:28:34.438Z,9.90
2022-08-23T09:31:01.566Z,10.70
2022-08-23T09:33:41.854Z,10.67
2022-08-23T09:36:14.806Z,10.50
2022-08-23T09:38:56.763Z,10.03
2022-08-23T09:41:32.882Z,9.77
2022-08-23T09:44:02.508Z,9.73
2022-08-23T09:46:36.031Z,10.03
2022-08-23T09:49:23.745Z,9.97
2022-08-23T09:51:54.204Z,9.37
2022-08-23T09:54:27.691Z,8.63
2022-08-23T09:56:57.670Z,9.80
2022-08-23T09:59:27.425Z,10.17
2022-08-23T10:01:57.189Z,10.47
2022-08-23T10:04:40.095Z,10.43
2022-08-23T10:07:40.334Z,9.00
2022-08-23T10:10:27.994Z,8.30
2022-08-23T10:12:56.598Z,9.17
2022-08-23T10:15:36.350Z,9.77
2022-08-23T10:18:26.753Z,10.30
2022-08-23T10:21:20.909Z,9.40
2022-08-23T10:24:08.751Z,9.03
2022-08-23T10:26:43.848Z,7.37
2022-08-23T10:29:39.126Z,8.07
2022-08-23T10:32:17.836Z,7.60
2022-08-23T10:35:09.315Z,7.47
2022-08-23T10:37:45.498Z,7.53
2022-08-23T10:40:40.218Z,7.10
2022-08-23T10:43:25.854Z,6.93
2022-08-23T10:45:56.113Z,6.53
2022-08-23T10:48:29.442Z,7.03
2022-08-23T10:51:11.534Z,7.20
2022-08-23T10:53:49.044Z,6.80
2022-08-23T10:56:20.984Z,7.93
2022-08-23T10:58:53.181Z,5.97
2022-08-23T11:01:26.573Z,6.43
2022-08-23T11:04:06.676Z,7.80
2022-08-23T11:06:36.185Z,7.47
2022-08-23T11:09:07.900Z,6.80
2022-08-23T11:11:45.265Z,7.83
2022-08-23T11:14:32.122Z,7.70
2022-08-23T11:17:02.266Z,7.70
2022-08-23T11:19:47.988Z,8.07
2022-08-23T11:22:20.918Z,8.10
2022-08-23T11:25:19.190Z,8.63
2022-08-23T11:27:46.571Z,6.77
2022-08-23T11:30:32.144Z,7.30
2022-08-23T11:33:24.392Z,7.63
2022-08-23T11:36:16.652Z,7.30
2022-08-23T11:39:06.828Z,7.50
2022-08-23T11:41:56.012Z,7.23
2022-08-23T11:44:48.180Z,6.87
2022-08-23T11:47:15.486Z,7.33
2022-08-23T11:50:00.487Z,6.27
2022-08-23T11:52:34.183Z,6.77
2022-08-23T11:55:22.154Z,7.83
2022-08-23T11:58:01.401Z,7.07
2022-08-23T12:00:53.240Z,7.13
2022-08-23T12:03:25.540Z,6.53
2022-08-23T12:05:52.201Z,7.60
2022-08-23T12:08:29.382Z,7.43
2022-08-23T12:11:03.086Z,7.43
2022-08-23T12:13:44.263Z,8.07
2022-08-23T12:16:16.947Z,7.60
2022-08-23T12:18:47.555Z,8.00
2022-08-23T12:21:29.468Z,7.10
2022-08-23T12:24:03.573Z,8.30
2022-08-23T12:27:08.704Z,7.27
2022-08-23T12:29:47.182Z,7.30
2022-08-23T12:32:28.731Z,7.77
2022-08-23T12:35:03.255Z,7.23
2022-08-23T12:37:41.879Z,7.43
2022-08-23T12:40:13.922Z,7.87
2022-08-23T12:42:41.941Z,7.50
2022-08-23T12:45:21.542Z,7.40
2022-08-23T12:48:01.408Z,8.53
2022-08-23T12:50:38.673Z,8.40
2022-08-23T12:53:10.656Z,8.40
2022-08-23T12:55:42.478Z,8.40
2022-08-23T12:58:12.330Z,7.07
2022-08-23T13:00:43.413Z,6.17
2022-08-23T13:03:18.025Z,4.30
2022-08-23T13:05:55.342Z,4.13
2022-08-23T13:08:37.442Z,4.17
2022-08-23T13:11:08.344Z,4.50
2022-08-23T13:13:38.685Z,5.67
2022-08-23T13:16:42.561Z,5.97
2022-08-23T13:19:35.311Z,5.00
2022-08-23T13:22:20.193Z,5.20
2022-08-23T13:27:59.845Z,5.70
2022-08-23T13:30:36.257Z,6.07
2022-08-23T13:33:07.909Z,7.03
2022-08-23T13:35:46.940Z,7.23
2022-08-23T13:38:21.430Z,7.87
2022-08-23T13:41:03.831Z,8.77
2022-08-23T13:43:45.375Z,7.30
2022-08-23T13:46:28.347Z,7.07
2022-08-23T13:49:00.780Z,6.43
2022-08-23T13:51:33.639Z,6.47
2022-08-23T13:54:06.829Z,6.83
2022-08-23T13:56:55.210Z,8.67
2022-08-23T13:59:31.552Z,7.40
2022-08-23T14:02:05.153Z,6.40
2022-08-23T14:04:32.496Z,6.80
2022-08-23T14:06:59.167Z,7.33
2022-08-23T14:09:26.682Z,7.20
2022-08-23T14:11:57.915Z,7.40
2022-08-23T14:14:25.422Z,7.17
2022-08-23T14:16:54.439Z,8.23
2022-08-23T14:22:07.974Z,7.43
2022-08-23T14:24:34.941Z,6.67
2022-08-23T14:27:01.901Z,8.07
2022-08-23T14:29:28.631Z,7.30
2022-08-23T14:31:57.411Z,7.07
2022-08-23T14:34:24.216Z,6.23
2022-08-23T14:39:39.208Z,6.63
2022-08-23T14:42:06.657Z,6.60
2022-08-23T14:44:36.190Z,7.70
2022-08-23T14:47:04.848Z,6.67
2022-08-23T14:49:31.783Z,6.87
2022-08-23T14:51:58.483Z,6.10
2022-08-23T14:54:26.776Z,7.30
2022-08-23T14:56:53.822Z,6.97
2022-08-23T14:59:20.780Z,6.03
2022-08-23T15:01:49.418Z,6.07
2022-08-23T15:04:19.104Z,6.20
2022-08-23T15:07:06.899Z,6.60
2022-08-23T15:09:33.372Z,5.90
2022-08-23T15:14:46.820Z,7.30
2022-08-23T15:17:14.489Z,6.73
2022-08-23T15:19:41.278Z,6.50
2022-08-23T15:22:21.287Z,7.07
2022-08-23T15:24:49.296Z,6.87
2022-08-23T15:27:17.946Z,6.57
2022-08-23T15:29:44.731Z,6.40
2022-08-23T15:32:12.764Z,7.97
2022-08-23T15:34:46.161Z,7.63
2022-08-23T15:37:13.830Z,8.47
2022-08-23T15:39:41.888Z,7.93
2022-08-23T15:42:08.733Z,7.47
2022-08-23T15:44:35.402Z,7.90
2022-08-23T15:47:04.960Z,8.07
2022-08-23T15:49:36.551Z,8.07
2022-08-23T15:52:04.269Z,8.27
2022-08-23T15:54:31.010Z,7.63
2022-08-23T15:56:57.937Z,7.57
2022-08-23T15:59:25.142Z,7.27
2022-08-23T16:01:52.107Z,7.10
2022-08-23T16:04:18.888Z,7.37
2022-08-23T16:06:45.923Z,7.87
2022-08-23T16:09:22.980Z,8.33
2022-08-23T16:11:50.599Z,8.13
2022-08-23T16:14:17.561Z,7.50
2022-08-23T16:16:46.762Z,7.67
2022-08-23T16:19:14.452Z,6.97
2022-08-23T16:21:44.170Z,7.63
2022-08-23T16:24:11.388Z,6.80
2022-08-23T16:26:41.959Z,7.97
2022-08-23T16:29:13.325Z,7.13
2022-08-23T16:31:41.756Z,7.87
2022-08-23T16:34:13.115Z,6.83
2022-08-23T16:36:42.482Z,7.60
2022-08-23T16:39:11.759Z,7.77
2022-08-23T16:41:38.574Z,7.73
2022-08-23T16:44:05.530Z,7.17
2022-08-23T16:46:32.603Z,7.50
2022-08-23T16:48:59.335Z,8.00
2022-08-23T16:51:26.596Z,7.17
2022-08-23T16:54:02.785Z,7.37
2022-08-23T16:56:32.018Z,7.70
2022-08-23T16:58:59.255Z,7.77
2022-08-23T17:01:27.215Z,6.60
2022-08-23T17:03:55.442Z,7.37
2022-08-23T17:06:22.625Z,6.10
2022-08-23T17:08:49.511Z,6.90
2022-08-23T17:11:19.425Z,6.77
2022-08-23T17:13:46.563Z,23.13
2022-08-23T17:16:13.320Z,8.53
2022-08-23T17:18:40.751Z,7.03
2022-08-23T17:21:07.757Z,6.73
2022-08-23T17:23:39.328Z,6.13
2022-08-23T17:26:08.726Z,5.97
2022-08-23T17:28:35.694Z,6.57
2022-08-23T17:31:02.720Z,6.27
2022-08-23T17:33:29.463Z,7.57
2022-08-23T17:35:56.140Z,7.10
2022-08-23T17:38:22.897Z,6.23
2022-08-23T17:40:50.066Z,5.90
2022-08-23T17:43:16.751Z,6.37
2022-08-23T17:45:46.622Z,6.37
2022-08-23T17:48:15.743Z,6.17
2022-08-23T17:50:43.742Z,6.73
2022-08-23T17:53:11.355Z,6.63
2022-08-23T17:55:38.051Z,6.23
2022-08-23T17:58:05.503Z,6.57
2022-08-23T18:00:34.937Z,7.00
2022-08-23T18:03:01.931Z,6.23
2022-08-23T18:05:30.344Z,6.47
2022-08-23T18:07:57.041Z,6.50
2022-08-23T18:10:25.460Z,6.17
2022-08-23T18:12:52.331Z,6.80
2022-08-23T18:15:19.170Z,6.10
2022-08-23T18:17:46.371Z,6.10
2022-08-23T18:20:13.466Z,6.57
2022-08-23T18:22:40.296Z,6.93
2022-08-23T18:25:09.437Z,7.67
2022-08-23T18:27:55.259Z,7.33
2022-08-23T18:30:22.082Z,6.80
2022-08-23T18:32:48.795Z,7.63
2022-08-23T18:35:15.653Z,7.00
2022-08-23T18:37:43.304Z,7.03
2022-08-23T18:40:10.775Z,6.83
2022-08-23T18:42:38.367Z,7.47
2022-08-23T18:45:06.903Z,7.90
2022-08-23T18:47:35.005Z,8.17
2022-08-23T18:50:01.779Z,7.53
2022-08-23T18:52:31.142Z,8.07
2022-08-23T18:54:58.265Z,7.60
2022-08-23T18:57:25.436Z,6.93
2022-08-23T18:59:52.648Z,5.87
2022-08-23T19:02:19.634Z,6.50
2022-08-23T19:04:46.519Z,7.10
2022-08-23T19:07:13.186Z,6.50
2022-08-23T19:09:39.804Z,7.50
2022-08-23T19:12:06.804Z,7.03
2022-08-23T19:14:35.573Z,5.50
2022-08-23T19:17:08.152Z,5.13
2022-08-23T19:19:35.131Z,3.73
2022-08-23T19:22:01.834Z,3.77
2022-08-23T19:24:28.779Z,3.60
2022-08-23T19:26:55.779Z,3.13
2022-08-23T19:29:22.531Z,3.40
2022-08-23T19:31:50.296Z,2.97
2022-08-23T19:34:19.700Z,3.23
2022-08-23T19:36:51.278Z,3.60
2022-08-23T19:39:27.379Z,3.27
2022-08-23T19:41:54.066Z,3.13
2022-08-23T19:44:21.422Z,3.83
2022-08-23T19:46:48.383Z,3.37
2022-08-23T19:49:15.398Z,3.30
2022-08-23T19:51:43.259Z,3.03
2022-08-23T19:54:12.597Z,3.50
2022-08-23T19:56:42.504Z,3.67
2022-08-23T19:59:12.588Z,3.40
2022-08-23T20:01:40.433Z,3.93
2022-08-23T20:04:07.667Z,4.70
2022-08-23T20:06:35.701Z,4.17
2022-08-23T20:09:04.820Z,3.97
2022-08-23T20:11:32.432Z,4.00
2022-08-23T20:14:00.197Z,3.67
2022-08-23T20:16:28.088Z,4.53
2022-08-23T20:18:55.365Z,4.53
2022-08-23T20:21:23.926Z,3.87
2022-08-23T20:24:04.387Z,4.00
2022-08-23T20:26:40.659Z,4.30
2022-08-23T20:29:22.636Z,4.77
2022-08-23T20:31:53.621Z,5.10
2022-08-23T20:34:21.983Z,5.93
2022-08-23T20:36:52.660Z,5.30
2022-08-23T20:39:23.749Z,5.37
2022-08-23T20:41:52.171Z,6.20
2022-08-23T20:44:19.964Z,5.77
2022-08-23T20:46:50.722Z,5.80
2022-08-23T20:49:21.118Z,5.57
2022-08-23T20:51:48.064Z,5.77
2022-08-23T20:54:16.826Z,6.10
2022-08-23T20:56:43.845Z,5.80
2022-08-23T20:59:10.611Z,5.73
2022-08-23T21:01:37.346Z,6.50
2022-08-23T21:04:05.487Z,5.93
2022-08-23T21:06:39.191Z,5.70
2022-08-23T21:09:16.359Z,5.73
2022-08-23T21:11:43.702Z,6.00
2022-08-23T21:14:10.331Z,5.77
2022-08-23T21:16:37.176Z,5.70
2022-08-23T21:19:04.036Z,6.37
2022-08-23T21:21:31.167Z,6.47
2022-08-23T21:23:58.028Z,6.07
2022-08-23T21:26:25.308Z,6.63
2022-08-23T21:28:52.199Z,6.13
2022-08-23T21:31:23.321Z,6.37
2022-08-23T21:33:50.325Z,6.77
2022-08-23T21:36:19.189Z,6.27
2022-08-23T21:38:46.373Z,7.23
2022-08-23T21:41:47.137Z,7.17
2022-08-23T21:44:22.872Z,6.33
2022-08-23T21:46:49.535Z,6.20
2022-08-23T21:49:17.101Z,5.87
2022-08-23T21:51:45.309Z,6.27
2022-08-23T21:54:13.294Z,6.87
2022-08-23T21:56:40.715Z,7.10
2022-08-23T21:59:11.207Z,6.47
2022-08-23T22:01:39.316Z,6.47
2022-08-23T22:04:08.874Z,5.70
2022-08-23T22:06:38.256Z,6.60
2022-08-23T22:09:10.953Z,6.27
2022-08-23T22:11:40.670Z,6.10
2022-08-23T22:14:12.620Z,7.20
2022-08-23T22:16:41.066Z,6.70
2022-08-23T22:19:07.721Z,7.30
2022-08-23T22:21:35.397Z,6.70
2022-08-23T22:24:02.818Z,6.17
2022-08-23T22:26:29.721Z,7.00
2022-08-23T22:28:57.224Z,5.67
2022-08-23T22:31:24.861Z,6.07
2022-08-23T22:33:52.829Z,7.23
2022-08-23T22:36:22.987Z,6.37
2022-08-23T22:38:51.740Z,6.77
2022-08-23T22:41:21.929Z,6.63
2022-08-23T22:43:48.574Z,6.33
2022-08-23T22:46:15.343Z,6.23
2022-08-23T22:48:42.542Z,6.77
2022-08-23T22:51:21.859Z,6.70
2022-08-23T22:53:51.742Z,7.53
2022-08-23T22:56:26.856Z,7.63
2022-08-23T22:58:54.379Z,6.97
2022-08-23T23:01:30.963Z,6.53
2022-08-23T23:03:59.536Z,7.63
2022-08-23T23:06:27.919Z,7.90
2022-08-23T23:08:56.270Z,8.07
2022-08-23T23:11:23.789Z,8.83
2022-08-23T23:13:50.982Z,7.80
2022-08-23T23:16:22.183Z,8.10
2022-08-23T23:19:27.784Z,7.30
2022-08-23T23:21:56.731Z,6.60
2022-08-23T23:24:27.039Z,6.67
2022-08-23T23:26:53.842Z,7.03
2022-08-23T23:29:20.985Z,7.33
2022-08-23T23:31:48.737Z,7.07
2022-08-23T23:34:16.122Z,6.77
2022-08-23T23:36:42.923Z,7.30
2022-08-23T23:39:11.245Z,6.60
2022-08-23T23:41:38.628Z,7.30
2022-08-23T23:44:05.839Z,6.97
2022-08-23T23:46:32.839Z,7.53
2022-08-23T23:48:59.455Z,7.37
2022-08-23T23:51:28.965Z,6.97
2022-08-23T23:53:57.741Z,6.70
2022-08-23T23:56:27.460Z,6.60
2022-08-23T23:58:55.148Z,7.97
